sensor_id;sensor_type;location;lat;lon;timestamp;pressure;altitude;pressure_sealevel;temperature;humidity
66021;BME280;52789;59.980;30.346;2022-12-18T00:01:24;102550.22;;;-5.75;84.86
66021;BME280;52789;59.980;30.346;2022-12-18T00:03:51;102562.16;;;-5.59;84.52
66021;BME280;52789;59.980;30.346;2022-12-18T00:06:17;102562.97;;;-5.55;84.58
66021;BME280;52789;59.980;30.346;2022-12-18T00:08:43;102554.25;;;-5.45;84.41
66021;BME280;52789;59.980;30.346;2022-12-18T00:11:21;102545.59;;;-5.46;83.84
66021;BME280;52789;59.980;30.346;2022-12-18T00:13:49;102550.75;;;-5.44;83.35
66021;BME280;52789;59.980;30.346;2022-12-18T00:16:18;102559.31;;;-5.36;83.00
66021;BME280;52789;59.980;30.346;2022-12-18T00:18:46;102550.56;;;-5.29;82.59
66021;BME280;52789;59.980;30.346;2022-12-18T00:21:14;102536.78;;;-5.34;82.65
66021;BME280;52789;59.980;30.346;2022-12-18T00:23:42;102540.19;;;-5.29;82.67
66021;BME280;52789;59.980;30.346;2022-12-18T00:26:11;102535.81;;;-5.25;81.83
66021;BME280;52789;59.980;30.346;2022-12-18T00:28:37;102539.22;;;-5.22;82.47
66021;BME280;52789;59.980;30.346;2022-12-18T00:31:08;102545.31;;;-5.24;82.01
66021;BME280;52789;59.980;30.346;2022-12-18T00:33:36;102527.19;;;-5.27;81.88
66021;BME280;52789;59.980;30.346;2022-12-18T00:36:07;102534.94;;;-5.26;82.66
66021;BME280;52789;59.980;30.346;2022-12-18T00:38:34;102532.44;;;-5.34;82.25
66021;BME280;52789;59.980;30.346;2022-12-18T00:41:00;102535.94;;;-5.35;82.55
66021;BME280;52789;59.980;30.346;2022-12-18T00:43:26;102525.59;;;-5.38;82.59
66021;BME280;52789;59.980;30.346;2022-12-18T00:45:52;102523.81;;;-5.36;82.44
66021;BME280;52789;59.980;30.346;2022-12-18T00:48:18;102532.63;;;-5.46;82.11
66021;BME280;52789;59.980;30.346;2022-12-18T00:50:43;102523.41;;;-5.76;83.52
66021;BME280;52789;59.980;30.346;2022-12-18T00:53:12;102521.81;;;-5.89;84.24
66021;BME280;52789;59.980;30.346;2022-12-18T00:55:39;102521.03;;;-5.96;85.61
66021;BME280;52789;59.980;30.346;2022-12-18T00:58:04;102505.56;;;-6.03;85.76
66021;BME280;52789;59.980;30.346;2022-12-18T01:00:30;102530.50;;;-5.90;85.48
66021;BME280;52789;59.980;30.346;2022-12-18T01:02:55;102521.75;;;-5.84;85.65
66021;BME280;52789;59.980;30.346;2022-12-18T01:05:21;102521.94;;;-5.98;85.59
66021;BME280;52789;59.980;30.346;2022-12-18T01:07:47;102527.03;;;-5.90;85.81
66021;BME280;52789;59.980;30.346;2022-12-18T01:10:13;102519.25;;;-5.90;86.22
66021;BME280;52789;59.980;30.346;2022-12-18T01:12:39;102525.16;;;-5.78;85.68
66021;BME280;52789;59.980;30.346;2022-12-18T01:15:05;102508.63;;;-5.69;85.21
66021;BME280;52789;59.980;30.346;2022-12-18T01:17:32;102505.91;;;-5.58;85.51
66021;BME280;52789;59.980;30.346;2022-12-18T01:19:57;102500.81;;;-5.66;84.51
66021;BME280;52789;59.980;30.346;2022-12-18T01:22:26;102508.56;;;-5.63;84.49
66021;BME280;52789;59.980;30.346;2022-12-18T01:24:51;102500.91;;;-5.74;84.68
66021;BME280;52789;59.980;30.346;2022-12-18T01:27:17;102503.63;;;-5.87;85.16
66021;BME280;52789;59.980;30.346;2022-12-18T01:29:43;102500.22;;;-5.89;85.46
66021;BME280;52789;59.980;30.346;2022-12-18T01:32:10;102488.25;;;-6.03;85.41
66021;BME280;52789;59.980;30.346;2022-12-18T01:34:36;102502.06;;;-5.99;85.94
66021;BME280;52789;59.980;30.346;2022-12-18T01:37:03;102499.44;;;-5.96;86.49
66021;BME280;52789;59.980;30.346;2022-12-18T01:39:29;102511.41;;;-5.87;85.58
66021;BME280;52789;59.980;30.346;2022-12-18T01:41:55;102517.47;;;-5.87;86.26
66021;BME280;52789;59.980;30.346;2022-12-18T01:47:40;102508.03;;;-5.91;86.15
66021;BME280;52789;59.980;30.346;2022-12-18T01:50:15;102509.81;;;-5.96;85.79
66021;BME280;52789;59.980;30.346;2022-12-18T01:52:42;102502.84;;;-5.91;86.18
66021;BME280;52789;59.980;30.346;2022-12-18T01:55:10;102512.38;;;-5.93;85.48
66021;BME280;52789;59.980;30.346;2022-12-18T01:57:38;102514.78;;;-5.79;85.90
66021;BME280;52789;59.980;30.346;2022-12-18T02:00:11;102501.81;;;-5.76;86.17
66021;BME280;52789;59.980;30.346;2022-12-18T02:02:37;102497.44;;;-5.73;86.57
66021;BME280;52789;59.980;30.346;2022-12-18T02:05:04;102500.00;;;-5.71;85.94
66021;BME280;52789;59.980;30.346;2022-12-18T02:07:43;102507.75;;;-5.68;85.59
66021;BME280;52789;59.980;30.346;2022-12-18T02:16:19;102509.63;;;-5.82;85.98
66021;BME280;52789;59.980;30.346;2022-12-18T02:18:51;102480.44;;;-5.98;85.78
66021;BME280;52789;59.980;30.346;2022-12-18T02:24:03;102500.34;;;-6.02;86.84
66021;BME280;52789;59.980;30.346;2022-12-18T02:26:44;102488.28;;;-6.06;87.45
66021;BME280;52789;59.980;30.346;2022-12-18T02:29:20;102491.69;;;-6.01;87.27
66021;BME280;52789;59.980;30.346;2022-12-18T02:31:56;102474.38;;;-5.99;87.40
66021;BME280;52789;59.980;30.346;2022-12-18T02:34:29;102477.59;;;-5.77;87.39
66021;BME280;52789;59.980;30.346;2022-12-18T02:36:57;102478.44;;;-5.75;86.44
66021;BME280;52789;59.980;30.346;2022-12-18T02:39:25;102480.16;;;-5.78;86.21
66021;BME280;52789;59.980;30.346;2022-12-18T02:41:52;102481.09;;;-5.82;85.80
66021;BME280;52789;59.980;30.346;2022-12-18T02:44:17;102480.25;;;-5.84;86.95
66021;BME280;52789;59.980;30.346;2022-12-18T02:46:50;102471.69;;;-5.89;86.99
66021;BME280;52789;59.980;30.346;2022-12-18T02:49:29;102476.94;;;-5.94;86.87
66021;BME280;52789;59.980;30.346;2022-12-18T02:52:13;102478.69;;;-5.96;86.78
66021;BME280;52789;59.980;30.346;2022-12-18T02:57:32;102489.75;;;-5.83;87.07
66021;BME280;52789;59.980;30.346;2022-12-18T03:00:06;102478.56;;;-5.88;87.27
66021;BME280;52789;59.980;30.346;2022-12-18T03:02:51;102488.06;;;-5.87;86.95
66021;BME280;52789;59.980;30.346;2022-12-18T03:05:27;102482.88;;;-5.87;86.67
66021;BME280;52789;59.980;30.346;2022-12-18T03:08:03;102480.28;;;-5.89;88.17
66021;BME280;52789;59.980;30.346;2022-12-18T03:10:35;102484.47;;;-5.74;86.60
66021;BME280;52789;59.980;30.346;2022-12-18T03:13:14;102487.09;;;-5.76;87.57
66021;BME280;52789;59.980;30.346;2022-12-18T03:15:44;102474.13;;;-5.80;86.75
66021;BME280;52789;59.980;30.346;2022-12-18T03:18:17;102481.81;;;-5.70;87.28
66021;BME280;52789;59.980;30.346;2022-12-18T03:20:45;102491.97;;;-5.48;87.06
66021;BME280;52789;59.980;30.346;2022-12-18T03:23:16;102486.63;;;-5.38;86.85
66021;BME280;52789;59.980;30.346;2022-12-18T03:25:44;102477.06;;;-5.34;85.80
66021;BME280;52789;59.980;30.346;2022-12-18T03:28:19;102487.50;;;-5.39;85.55
66021;BME280;52789;59.980;30.346;2022-12-18T03:30:52;102485.81;;;-5.41;86.47
66021;BME280;52789;59.980;30.346;2022-12-18T03:33:24;102490.16;;;-5.42;86.61
66021;BME280;52789;59.980;30.346;2022-12-18T03:35:51;102488.31;;;-5.34;86.75
66021;BME280;52789;59.980;30.346;2022-12-18T03:38:16;102480.44;;;-5.27;86.48
66021;BME280;52789;59.980;30.346;2022-12-18T03:49:53;102492.34;;;-5.10;85.64
66021;BME280;52789;59.980;30.346;2022-12-18T03:54:55;102487.06;;;-5.05;85.25
66021;BME280;52789;59.980;30.346;2022-12-18T03:57:25;102493.31;;;-5.17;84.60
66021;BME280;52789;59.980;30.346;2022-12-18T03:59:56;102488.31;;;-5.34;84.48
66021;BME280;52789;59.980;30.346;2022-12-18T04:02:23;102490.91;;;-5.34;84.87
66021;BME280;52789;59.980;30.346;2022-12-18T04:04:52;102485.75;;;-5.37;85.40
66021;BME280;52789;59.980;30.346;2022-12-18T04:07:19;102482.22;;;-5.31;85.81
66021;BME280;52789;59.980;30.346;2022-12-18T04:09:45;102471.13;;;-5.42;85.27
66021;BME280;52789;59.980;30.346;2022-12-18T04:12:11;102470.31;;;-5.47;85.28
66021;BME280;52789;59.980;30.346;2022-12-18T04:14:37;102458.25;;;-5.53;85.68
66021;BME280;52789;59.980;30.346;2022-12-18T04:17:03;102470.31;;;-5.47;85.15
66021;BME280;52789;59.980;30.346;2022-12-18T04:19:29;102454.75;;;-5.49;85.39
66021;BME280;52789;59.980;30.346;2022-12-18T04:21:54;102466.88;;;-5.51;85.79
66021;BME280;52789;59.980;30.346;2022-12-18T04:24:20;102468.72;;;-5.59;85.71
66021;BME280;52789;59.980;30.346;2022-12-18T04:26:46;102467.03;;;-5.63;85.43
66021;BME280;52789;59.980;30.346;2022-12-18T04:29:12;102442.91;;;-5.71;86.33
66021;BME280;52789;59.980;30.346;2022-12-18T04:31:40;102470.34;;;-5.52;86.35
66021;BME280;52789;59.980;30.346;2022-12-18T04:34:06;102479.91;;;-5.55;86.07
66021;BME280;52789;59.980;30.346;2022-12-18T04:36:31;102487.69;;;-5.54;86.67
66021;BME280;52789;59.980;30.346;2022-12-18T04:38:57;102492.84;;;-5.52;86.23
66021;BME280;52789;59.980;30.346;2022-12-18T04:41:22;102498.03;;;-5.48;86.03
66021;BME280;52789;59.980;30.346;2022-12-18T04:43:48;102483.31;;;-5.49;86.60
66021;BME280;52789;59.980;30.346;2022-12-18T04:46:13;102485.88;;;-5.46;86.20
66021;BME280;52789;59.980;30.346;2022-12-18T04:48:38;102478.19;;;-5.55;85.78
66021;BME280;52789;59.980;30.346;2022-12-18T04:51:05;102484.28;;;-5.59;86.61
66021;BME280;52789;59.980;30.346;2022-12-18T04:53:31;102484.31;;;-5.62;86.83
66021;BME280;52789;59.980;30.346;2022-12-18T04:56:08;102476.56;;;-5.65;87.29
66021;BME280;52789;59.980;30.346;2022-12-18T04:58:34;102489.50;;;-5.62;87.42
66021;BME280;52789;59.980;30.346;2022-12-18T05:01:00;102484.31;;;-5.62;87.36
66021;BME280;52789;59.980;30.346;2022-12-18T05:03:26;102486.09;;;-5.64;86.76
66021;BME280;52789;59.980;30.346;2022-12-18T05:05:52;102482.69;;;-5.69;87.13
66021;BME280;52789;59.980;30.346;2022-12-18T05:08:18;102474.06;;;-5.71;87.83
66021;BME280;52789;59.980;30.346;2022-12-18T05:10:44;102487.84;;;-5.66;88.41
66021;BME280;52789;59.980;30.346;2022-12-18T05:13:09;102480.84;;;-5.61;88.51
66021;BME280;52789;59.980;30.346;2022-12-18T05:15:35;102485.91;;;-5.52;88.03
66021;BME280;52789;59.980;30.346;2022-12-18T05:18:02;102483.31;;;-5.52;87.85
66021;BME280;52789;59.980;30.346;2022-12-18T05:20:28;102473.91;;;-5.59;87.73
66021;BME280;52789;59.980;30.346;2022-12-18T05:22:54;102484.28;;;-5.59;87.79
66021;BME280;52789;59.980;30.346;2022-12-18T05:25:20;102476.56;;;-5.65;88.21
66021;BME280;52789;59.980;30.346;2022-12-18T05:27:46;102484.38;;;-5.65;87.27
66021;BME280;52789;59.980;30.346;2022-12-18T05:30:12;102462.00;;;-5.75;87.80
66021;BME280;52789;59.980;30.346;2022-12-18T05:32:38;102469.75;;;-5.74;88.31
66021;BME280;52789;59.980;30.346;2022-12-18T05:35:04;102474.03;;;-5.68;88.81
66021;BME280;52789;59.980;30.346;2022-12-18T05:37:30;102447.50;;;-5.91;88.28
66021;BME280;52789;59.980;30.346;2022-12-18T05:39:58;102479.28;;;-5.74;88.42
66021;BME280;52789;59.980;30.346;2022-12-18T05:42:24;102478.31;;;-5.66;88.57
66021;BME280;52789;59.980;30.346;2022-12-18T05:44:49;102477.41;;;-5.63;88.70
66021;BME280;52789;59.980;30.346;2022-12-18T05:47:15;102494.63;;;-5.56;88.34
66021;BME280;52789;59.980;30.346;2022-12-18T05:49:40;102476.72;;;-5.79;88.45
66021;BME280;52789;59.980;30.346;2022-12-18T05:52:06;102474.22;;;-5.86;89.14
66021;BME280;52789;59.980;30.346;2022-12-18T05:54:31;102474.22;;;-5.86;88.70
66021;BME280;52789;59.980;30.346;2022-12-18T05:56:58;102482.88;;;-5.89;89.02
66021;BME280;52789;59.980;30.346;2022-12-18T05:59:23;102490.75;;;-5.94;89.12
66021;BME280;52789;59.980;30.346;2022-12-18T06:01:49;102489.78;;;-5.86;89.39
66021;BME280;52789;59.980;30.346;2022-12-18T06:04:15;102475.88;;;-5.82;89.22
66021;BME280;52789;59.980;30.346;2022-12-18T06:06:41;102462.97;;;-5.87;89.26
66021;BME280;52789;59.980;30.346;2022-12-18T06:09:06;102475.00;;;-5.80;88.22
66021;BME280;52789;59.980;30.346;2022-12-18T06:11:35;102481.97;;;-5.85;87.95
66021;BME280;52789;59.980;30.346;2022-12-18T06:14:02;102491.63;;;-5.95;88.57
66021;BME280;52789;59.980;30.346;2022-12-18T06:16:28;102493.34;;;-5.94;89.23
66021;BME280;52789;59.980;30.346;2022-12-18T06:19:02;102488.16;;;-5.94;88.49
66021;BME280;52789;59.980;30.346;2022-12-18T06:21:30;102492.47;;;-5.91;88.44
66021;BME280;52789;59.980;30.346;2022-12-18T06:23:57;102485.69;;;-6.04;88.10
66021;BME280;52789;59.980;30.346;2022-12-18T06:26:23;102493.47;;;-6.06;87.95
66021;BME280;52789;59.980;30.346;2022-12-18T06:28:52;102475.53;;;-6.27;88.43
66021;BME280;52789;59.980;30.346;2022-12-18T06:31:18;102484.28;;;-6.43;89.03
66021;BME280;52789;59.980;30.346;2022-12-18T06:33:44;102492.06;;;-6.43;89.05
66021;BME280;52789;59.980;30.346;2022-12-18T06:36:12;102492.97;;;-6.47;88.69
66021;BME280;52789;59.980;30.346;2022-12-18T06:38:40;102479.25;;;-6.59;89.62
66021;BME280;52789;59.980;30.346;2022-12-18T06:41:14;102486.09;;;-6.51;90.16
66021;BME280;52789;59.980;30.346;2022-12-18T06:43:39;102477.53;;;-6.60;89.16
66021;BME280;52789;59.980;30.346;2022-12-18T06:46:05;102486.94;;;-6.49;90.17
66021;BME280;52789;59.980;30.346;2022-12-18T06:48:31;102477.41;;;-6.46;89.96
66021;BME280;52789;59.980;30.346;2022-12-18T06:50:57;102475.81;;;-6.65;89.79
66021;BME280;52789;59.980;30.346;2022-12-18T06:53:23;102465.63;;;-6.85;90.18
66021;BME280;52789;59.980;30.346;2022-12-18T06:55:49;102487.13;;;-6.74;91.16
66021;BME280;52789;59.980;30.346;2022-12-18T06:58:17;102479.34;;;-6.74;91.42
66021;BME280;52789;59.980;30.346;2022-12-18T07:00:42;102476.75;;;-6.74;92.28
66021;BME280;52789;59.980;30.346;2022-12-18T07:03:08;102477.59;;;-6.72;91.53
66021;BME280;52789;59.980;30.346;2022-12-18T07:05:33;102472.47;;;-6.78;91.74
66021;BME280;52789;59.980;30.346;2022-12-18T07:07:59;102488.94;;;-6.85;91.35
66021;BME280;52789;59.980;30.346;2022-12-18T07:10:25;102479.47;;;-6.92;91.74
66021;BME280;52789;59.980;30.346;2022-12-18T07:12:51;102479.47;;;-6.92;91.43
66021;BME280;52789;59.980;30.346;2022-12-18T07:15:16;102487.25;;;-6.92;91.60
66021;BME280;52789;59.980;30.346;2022-12-18T07:17:42;102464.06;;;-7.12;90.80
66021;BME280;52789;59.980;30.346;2022-12-18T07:20:08;102484.75;;;-7.12;91.28
66021;BME280;52789;59.980;30.346;2022-12-18T07:22:33;102476.19;;;-7.25;90.58
66021;BME280;52789;59.980;30.346;2022-12-18T07:24:59;102483.09;;;-7.24;91.38
66021;BME280;52789;59.980;30.346;2022-12-18T07:27:24;102441.84;;;-7.51;90.52
66021;BME280;52789;59.980;30.346;2022-12-18T07:29:51;102486.66;;;-7.49;90.79
66021;BME280;52789;59.980;30.346;2022-12-18T07:32:17;102482.38;;;-7.62;91.49
66021;BME280;52789;59.980;30.346;2022-12-18T07:34:42;102463.50;;;-7.79;91.35
66021;BME280;52789;59.980;30.346;2022-12-18T07:37:08;102496.19;;;-7.63;92.40
66021;BME280;52789;59.980;30.346;2022-12-18T07:39:33;102490.16;;;-7.61;92.61
66021;BME280;52789;59.980;30.346;2022-12-18T07:41:59;102480.66;;;-7.63;92.53
66021;BME280;52789;59.980;30.346;2022-12-18T07:44:43;102502.19;;;-7.46;92.86
66021;BME280;52789;59.980;30.346;2022-12-18T07:47:08;102470.28;;;-7.57;92.03
66021;BME280;52789;59.980;30.346;2022-12-18T07:49:34;102498.66;;;-7.31;92.39
66021;BME280;52789;59.980;30.346;2022-12-18T07:51:59;102488.25;;;-7.19;93.08
66021;BME280;52789;59.980;30.346;2022-12-18T07:54:25;102476.09;;;-7.08;92.62
66021;BME280;52789;59.980;30.346;2022-12-18T07:56:51;102472.66;;;-7.10;91.66
66021;BME280;52789;59.980;30.346;2022-12-18T07:59:17;102475.22;;;-7.05;92.06
66021;BME280;52789;59.980;30.346;2022-12-18T08:01:43;102470.88;;;-7.00;92.29
66021;BME280;52789;59.980;30.346;2022-12-18T08:04:09;102459.63;;;-6.93;91.93
66021;BME280;52789;59.980;30.346;2022-12-18T08:06:34;102442.34;;;-6.94;91.25
66021;BME280;52789;59.980;30.346;2022-12-18T08:09:00;102442.34;;;-6.91;91.99
66021;BME280;52789;59.980;30.346;2022-12-18T08:11:27;102447.47;;;-6.85;91.34
66021;BME280;52789;59.980;30.346;2022-12-18T08:13:53;102448.28;;;-6.77;92.01
66021;BME280;52789;59.980;30.346;2022-12-18T08:16:19;102454.16;;;-6.57;91.15
66021;BME280;52789;59.980;30.346;2022-12-18T08:18:45;102443.63;;;-6.38;91.85
66021;BME280;52789;59.980;30.346;2022-12-18T08:21:12;102434.97;;;-6.34;90.34
66021;BME280;52789;59.980;30.346;2022-12-18T08:23:38;102410.06;;;-6.50;90.11
66021;BME280;52789;59.980;30.346;2022-12-18T08:26:05;102446.13;;;-6.28;89.81
66021;BME280;52789;59.980;30.346;2022-12-18T08:28:31;102437.44;;;-6.22;88.97
66021;BME280;52789;59.980;30.346;2022-12-18T08:31:04;102453.00;;;-6.22;89.16
66021;BME280;52789;59.980;30.346;2022-12-18T08:33:30;102457.44;;;-6.36;88.53
66021;BME280;52789;59.980;30.346;2022-12-18T08:35:56;102480.72;;;-6.30;88.25
66021;BME280;52789;59.980;30.346;2022-12-18T08:38:23;102477.31;;;-6.34;87.70
66021;BME280;52789;59.980;30.346;2022-12-18T08:40:48;102465.38;;;-6.53;88.98
66021;BME280;52789;59.980;30.346;2022-12-18T08:43:14;102467.88;;;-6.45;89.37
66021;BME280;52789;59.980;30.346;2022-12-18T08:45:58;102459.31;;;-6.50;89.35
66021;BME280;52789;59.980;30.346;2022-12-18T08:48:23;102454.25;;;-6.64;89.26
66021;BME280;52789;59.980;30.346;2022-12-18T08:50:59;102467.97;;;-6.54;90.68
66021;BME280;52789;59.980;30.346;2022-12-18T08:53:26;102452.38;;;-6.48;89.84
66021;BME280;52789;59.980;30.346;2022-12-18T08:55:52;102460.91;;;-6.37;89.53
66021;BME280;52789;59.980;30.346;2022-12-18T08:58:18;102444.53;;;-6.44;89.38
66021;BME280;52789;59.980;30.346;2022-12-18T09:00:44;102454.88;;;-6.41;89.14
66021;BME280;52789;59.980;30.346;2022-12-18T09:03:14;102439.41;;;-6.50;89.52
66021;BME280;52789;59.980;30.346;2022-12-18T09:05:40;102450.56;;;-6.42;89.51
66021;BME280;52789;59.980;30.346;2022-12-18T09:08:09;102428.94;;;-6.38;89.78
66021;BME280;52789;59.980;30.346;2022-12-18T09:10:41;102433.25;;;-6.38;88.94
66021;BME280;52789;59.980;30.346;2022-12-18T09:13:07;102426.44;;;-6.48;89.11
66021;BME280;52789;59.980;30.346;2022-12-18T09:15:32;102438.56;;;-6.50;89.34
66021;BME280;52789;59.980;30.346;2022-12-18T09:17:58;102429.88;;;-6.46;90.22
66021;BME280;52789;59.980;30.346;2022-12-18T09:20:24;102418.53;;;-6.36;90.29
66021;BME280;52789;59.980;30.346;2022-12-18T09:22:49;102427.94;;;-6.23;88.71
66021;BME280;52789;59.980;30.346;2022-12-18T09:25:15;102429.50;;;-6.07;88.86
66021;BME280;52789;59.980;30.346;2022-12-18T09:27:41;102431.28;;;-6.12;86.78
66021;BME280;52789;59.980;30.346;2022-12-18T09:30:08;102425.34;;;-6.23;87.13
66021;BME280;52789;59.980;30.346;2022-12-18T09:33:02;102404.75;;;-6.40;86.85
66021;BME280;52789;59.980;30.346;2022-12-18T09:35:28;102437.34;;;-6.14;87.12
66021;BME280;52789;59.980;30.346;2022-12-18T09:37:54;102424.47;;;-6.22;87.54
66021;BME280;52789;59.980;30.346;2022-12-18T09:40:22;102432.94;;;-6.05;87.71
66021;BME280;52789;59.980;30.346;2022-12-18T09:42:53;102428.53;;;-5.97;87.02
66021;BME280;52789;59.980;30.346;2022-12-18T09:45:21;102370.97;;;-6.29;85.40
66021;BME280;52789;59.980;30.346;2022-12-18T09:47:48;102428.63;;;-6.04;86.61
66021;BME280;52789;59.980;30.346;2022-12-18T09:50:32;102425.94;;;-5.97;86.44
66021;BME280;52789;59.980;30.346;2022-12-18T09:53:04;102405.22;;;-6.00;86.79
66021;BME280;52789;59.980;30.346;2022-12-18T09:55:37;102423.19;;;-5.87;86.55
66021;BME280;52789;59.980;30.346;2022-12-18T09:58:22;102411.81;;;-5.74;86.40
66021;BME280;52789;59.980;30.346;2022-12-18T10:00:52;102396.56;;;-5.99;85.03
66021;BME280;52789;59.980;30.346;2022-12-18T10:03:17;102401.78;;;-6.00;86.63
66021;BME280;52789;59.980;30.346;2022-12-18T10:06:11;102402.66;;;-6.03;86.47
66021;BME280;52789;59.980;30.346;2022-12-18T10:19:50;102394.28;;;-6.26;86.95
66021;BME280;52789;59.980;30.346;2022-12-18T10:22:25;102368.63;;;-6.55;87.33
66021;BME280;52789;59.980;30.346;2022-12-18T10:25:01;102354.13;;;-6.76;88.09
66021;BME280;52789;59.980;30.346;2022-12-18T10:27:29;102389.13;;;-6.31;88.67
66021;BME280;52789;59.980;30.346;2022-12-18T10:29:56;102395.22;;;-6.33;87.18
66021;BME280;52789;59.980;30.346;2022-12-18T10:32:25;102360.66;;;-6.38;87.60
66021;BME280;52789;59.980;30.346;2022-12-18T10:34:55;102400.91;;;-6.01;86.88
66021;BME280;52789;59.980;30.346;2022-12-18T10:37:27;102338.00;;;-6.19;86.76
66021;BME280;52789;59.980;30.346;2022-12-18T10:40:10;102390.28;;;-5.84;85.96
66021;BME280;52789;59.980;30.346;2022-12-18T10:42:36;102370.75;;;-6.11;86.15
66021;BME280;52789;59.980;30.346;2022-12-18T10:45:20;102396.47;;;-5.93;86.59
66021;BME280;52789;59.980;30.346;2022-12-18T10:47:48;102386.16;;;-5.96;85.36
66021;BME280;52789;59.980;30.346;2022-12-18T10:50:30;102393.22;;;-6.10;86.43
66021;BME280;52789;59.980;30.346;2022-12-18T10:53:01;102385.53;;;-6.19;86.99
66021;BME280;52789;59.980;30.346;2022-12-18T10:55:34;102382.13;;;-6.22;86.60
66021;BME280;52789;59.980;30.346;2022-12-18T11:01:46;102317.59;;;-6.48;86.60
66021;BME280;52789;59.980;30.346;2022-12-18T11:04:18;102380.19;;;-6.02;87.07
66021;BME280;52789;59.980;30.346;2022-12-18T11:07:01;102381.00;;;-5.99;86.58
66021;BME280;52789;59.980;30.346;2022-12-18T11:09:39;102381.91;;;-6.01;86.50
66021;BME280;52789;59.980;30.346;2022-12-18T11:12:17;102383.50;;;-5.91;87.39
66021;BME280;52789;59.980;30.346;2022-12-18T11:14:46;102384.28;;;-5.87;85.42
66021;BME280;52789;59.980;30.346;2022-12-18T11:17:28;102355.16;;;-6.06;86.30
66021;BME280;52789;59.980;30.346;2022-12-18T11:20:21;102378.09;;;-5.79;86.39
66021;BME280;52789;59.980;30.346;2022-12-18T11:23:01;102369.50;;;-5.82;86.59
66021;BME280;52789;59.980;30.346;2022-12-18T11:25:32;102356.81;;;-6.01;86.37
66021;BME280;52789;59.980;30.346;2022-12-18T11:30:48;102361.09;;;-5.98;86.05
66021;BME280;52789;59.980;30.346;2022-12-18T11:33:38;102306.97;;;-6.26;86.76
66021;BME280;52789;59.980;30.346;2022-12-18T11:36:09;102357.66;;;-5.99;86.99
66021;BME280;52789;59.980;30.346;2022-12-18T11:38:45;102345.63;;;-6.06;87.01
66021;BME280;52789;59.980;30.346;2022-12-18T11:41:24;102347.38;;;-6.09;87.32
66021;BME280;52789;59.980;30.346;2022-12-18T11:44:22;102343.09;;;-6.12;87.86
66021;BME280;52789;59.980;30.346;2022-12-18T11:46:59;102339.75;;;-6.20;88.16
66021;BME280;52789;59.980;30.346;2022-12-18T11:49:33;102343.22;;;-6.21;89.14
66021;BME280;52789;59.980;30.346;2022-12-18T11:52:08;102329.41;;;-6.23;88.52
66021;BME280;52789;59.980;30.346;2022-12-18T11:54:35;102319.03;;;-6.23;89.45
66021;BME280;52789;59.980;30.346;2022-12-18T11:57:11;102327.44;;;-6.03;88.80
66021;BME280;52789;59.980;30.346;2022-12-18T11:59:56;102317.06;;;-6.01;88.48
66021;BME280;52789;59.980;30.346;2022-12-18T12:02:59;102305.13;;;-6.17;88.75
66021;BME280;52789;59.980;30.346;2022-12-18T12:08:26;102314.25;;;-5.89;89.60
66021;BME280;52789;59.980;30.346;2022-12-18T12:11:07;102306.41;;;-5.84;88.48
66021;BME280;52789;59.980;30.346;2022-12-18T12:16:07;102309.72;;;-5.73;87.74
66021;BME280;52789;59.980;30.346;2022-12-18T12:18:41;102302.97;;;-5.86;88.03
66021;BME280;52789;59.980;30.346;2022-12-18T12:21:35;102315.91;;;-5.85;89.16
66021;BME280;52789;59.980;30.346;2022-12-18T12:27:25;102302.03;;;-5.82;89.61
66021;BME280;52789;59.980;30.346;2022-12-18T12:30:07;102309.69;;;-5.70;89.93
66021;BME280;52789;59.980;30.346;2022-12-18T12:32:56;102316.53;;;-5.66;90.05
66021;BME280;52789;59.980;30.346;2022-12-18T12:35:35;102312.22;;;-5.67;90.58
66021;BME280;52789;59.980;30.346;2022-12-18T12:38:18;102308.03;;;-5.76;90.72
66021;BME280;52789;59.980;30.346;2022-12-18T12:40:52;102316.69;;;-5.78;91.14
66021;BME280;52789;59.980;30.346;2022-12-18T12:43:42;102307.22;;;-5.82;91.30
66021;BME280;52789;59.980;30.346;2022-12-18T12:46:11;102313.47;;;-5.93;92.21
66021;BME280;52789;59.980;30.346;2022-12-18T12:48:49;102310.91;;;-5.96;92.29
66021;BME280;52789;59.980;30.346;2022-12-18T12:51:21;102316.09;;;-5.96;92.54
66021;BME280;52789;59.980;30.346;2022-12-18T12:53:48;102311.78;;;-5.97;92.95
66021;BME280;52789;59.980;30.346;2022-12-18T12:56:16;102312.59;;;-5.91;93.26
66021;BME280;52789;59.980;30.346;2022-12-18T12:59:00;102306.59;;;-5.97;93.51
66021;BME280;52789;59.980;30.346;2022-12-18T13:01:37;102320.38;;;-5.91;93.97
66021;BME280;52789;59.980;30.346;2022-12-18T13:04:23;102314.22;;;-5.86;94.43
66021;BME280;52789;59.980;30.346;2022-12-18T13:09:23;102307.22;;;-5.82;93.89
66021;BME280;52789;59.980;30.346;2022-12-18T13:11:49;102307.25;;;-5.84;92.97
66021;BME280;52789;59.980;30.346;2022-12-18T13:14:37;102294.66;;;-6.07;93.31
66021;BME280;52789;59.980;30.346;2022-12-18T13:19:49;102288.94;;;-6.35;94.15
66021;BME280;52789;59.980;30.346;2022-12-18T13:22:34;102296.88;;;-6.51;95.18
66021;BME280;52789;59.980;30.346;2022-12-18T13:24:59;102289.25;;;-6.64;95.65
66021;BME280;52789;59.980;30.346;2022-12-18T13:36:01;102291.03;;;-6.70;96.87
66021;BME280;52789;59.980;30.346;2022-12-18T13:41:00;102295.34;;;-6.71;97.02
66021;BME280;52789;59.980;30.346;2022-12-18T13:48:57;102282.31;;;-6.62;98.62
66021;BME280;52789;59.980;30.346;2022-12-18T13:51:24;102280.47;;;-6.50;98.26
66021;BME280;52789;59.980;30.346;2022-12-18T13:54:19;102271.59;;;-6.31;97.80
66021;BME280;52789;59.980;30.346;2022-12-18T13:56:47;102268.84;;;-6.19;97.51
66021;BME280;52789;59.980;30.346;2022-12-18T13:59:14;102266.91;;;-6.02;96.61
66021;BME280;52789;59.980;30.346;2022-12-18T14:01:57;102253.81;;;-5.94;96.22
66021;BME280;52789;59.980;30.346;2022-12-18T14:04:30;102266.50;;;-5.74;96.04
66021;BME280;52789;59.980;30.346;2022-12-18T14:07:01;102263.72;;;-5.64;95.17
66021;BME280;52789;59.980;30.346;2022-12-18T14:09:30;102261.84;;;-5.54;94.33